Weather at Phi Trường Nước Trong (cũ) [CLOSED]

Public forecast

Using degrees Celsius for public forecast. Weather courtesy of forecast.io.

Closest aviation weather report (METAR) to Phi Trường Nước Trong (cũ)

Closest report is Tan Son Nhat International Airport, 18.2 nm (33.6 km) W.

2024/07/24 03:00 (retrieved 18 minutes ago)

VVTS 240300Z 25012KT 220V280 9999 FEW024 BKN027 31/25 Q1007 NOSIG

Closest aviation forecast (TAF) to Phi Trường Nước Trong (cũ)

Forecast is more than 12 hours old.

Closest forecast is Car Nicobar Air Force Base, 842.1 nm (1,559.5 km) W.

2024/07/23 12:00 (retrieved 15 hours ago)

TAF VOCX 230930Z 2312/2324 22010KT 6000 SCT015 BKN090 TEMPO 1215/1217 24010G20KT 5000 RA SCT015 FEW025TCU BKN090